createdAt,value
2022-11-15T00:02:27.658Z,79.68
2022-11-15T00:05:08.063Z,79.78
2022-11-15T00:07:55.622Z,79.61
2022-11-15T00:10:37.853Z,79.76
2022-11-15T00:13:18.374Z,79.99
2022-11-15T00:16:01.539Z,79.94
2022-11-15T00:18:46.405Z,80.17
2022-11-15T00:21:29.863Z,80.12
2022-11-15T00:24:10.790Z,80.33
2022-11-15T00:26:51.417Z,80.09
2022-11-15T00:29:31.738Z,80.54
2022-11-15T00:32:12.322Z,80.19
2022-11-15T00:34:52.971Z,80.26
2022-11-15T00:37:33.521Z,80.44
2022-11-15T00:40:15.167Z,80.61
2022-11-15T00:42:55.742Z,80.40
2022-11-15T00:45:36.176Z,80.99
2022-11-15T00:48:16.611Z,80.89
2022-11-15T00:50:57.884Z,80.79
2022-11-15T00:53:38.464Z,80.89
2022-11-15T00:56:19.292Z,81.03
2022-11-15T00:58:59.607Z,80.85
2022-11-15T01:01:39.921Z,80.84
2022-11-15T01:04:20.863Z,81.09
2022-11-15T01:07:01.307Z,80.97
2022-11-15T01:09:41.619Z,81.06
2022-11-15T01:12:21.751Z,81.15
2022-11-15T01:15:02.506Z,81.18
2022-11-15T01:17:42.744Z,81.01
2022-11-15T01:20:22.846Z,80.93
2022-11-15T01:23:03.236Z,80.93
2022-11-15T01:25:43.819Z,81.03
2022-11-15T01:28:24.220Z,81.00
2022-11-15T01:31:08.692Z,80.89
2022-11-15T01:33:49.763Z,81.23
2022-11-15T01:36:30.173Z,81.22
2022-11-15T01:39:10.531Z,81.15
2022-11-15T01:41:50.882Z,81.18
2022-11-15T01:44:52.909Z,81.15
2022-11-15T01:47:44.127Z,81.19
2022-11-15T01:50:32.547Z,81.36
2022-11-15T01:53:13.493Z,81.38
2022-11-15T01:55:55.266Z,81.34
2022-11-15T01:58:38.041Z,81.21
2022-11-15T02:01:18.878Z,81.23
2022-11-15T02:04:08.155Z,81.41
2022-11-15T02:06:49.809Z,81.29
2022-11-15T02:09:31.147Z,81.51
2022-11-15T02:12:16.284Z,81.29
2022-11-15T02:14:57.722Z,81.32
2022-11-15T02:18:06.866Z,81.57
2022-11-15T02:21:23.597Z,81.46
2022-11-15T02:24:33.414Z,81.40
2022-11-15T02:27:47.944Z,81.64
2022-11-15T02:30:54.022Z,81.48
2022-11-15T02:34:09.372Z,81.77
2022-11-15T02:37:27.043Z,81.87
2022-11-15T02:40:44.477Z,81.90
2022-11-15T02:44:11.741Z,82.01
2022-11-15T02:47:15.891Z,82.41
2022-11-15T02:50:01.978Z,82.63
2022-11-15T02:52:46.460Z,82.70
2022-11-15T02:55:41.972Z,82.62
2022-11-15T02:58:42.171Z,83.16
2022-11-15T03:01:44.537Z,84.01
2022-11-15T03:04:52.845Z,84.79
2022-11-15T03:08:06.143Z,85.26
2022-11-15T03:10:59.229Z,85.61
2022-11-15T03:14:20.006Z,86.09
2022-11-15T03:17:07.359Z,86.17
2022-11-15T03:19:55.148Z,86.12
2022-11-15T03:22:43.641Z,86.22
2022-11-15T03:25:28.280Z,86.25
2022-11-15T03:28:18.165Z,86.25
2022-11-15T03:31:23.951Z,86.01
2022-11-15T03:34:11.479Z,85.97
2022-11-15T03:36:53.825Z,86.58
2022-11-15T03:39:35.872Z,86.63
2022-11-15T03:42:43.374Z,86.81
2022-11-15T03:45:35.157Z,86.68
2022-11-15T03:48:27.599Z,87.18
2022-11-15T03:51:08.612Z,87.40
2022-11-15T03:53:49.305Z,87.12
2022-11-15T03:56:29.664Z,86.99
2022-11-15T03:59:10.349Z,86.93
2022-11-15T04:01:50.582Z,87.01
2022-11-15T04:04:31.198Z,87.32
2022-11-15T04:07:12.186Z,87.56
2022-11-15T04:10:04.948Z,87.82
2022-11-15T04:12:48.702Z,88.11
2022-11-15T04:15:30.331Z,88.25
2022-11-15T04:18:10.796Z,88.16
2022-11-15T04:21:09.587Z,87.97
2022-11-15T04:23:52.614Z,88.32
2022-11-15T04:26:33.443Z,87.86
2022-11-15T04:29:32.081Z,88.07
2022-11-15T04:32:12.669Z,87.66
2022-11-15T04:34:53.197Z,87.92
2022-11-15T04:37:33.529Z,88.01
2022-11-15T04:40:14.375Z,88.05
2022-11-15T04:42:56.316Z,87.85
2022-11-15T04:45:39.934Z,87.26
2022-11-15T04:48:20.702Z,87.47
2022-11-15T04:51:00.777Z,87.09
2022-11-15T04:53:41.112Z,87.05
2022-11-15T04:56:22.128Z,86.97
2022-11-15T04:59:02.664Z,86.80
2022-11-15T05:01:45.048Z,86.38
2022-11-15T05:04:26.229Z,86.52
2022-11-15T05:07:06.973Z,86.36
2022-11-15T05:09:47.792Z,86.39
2022-11-15T05:12:28.029Z,86.42
2022-11-15T05:15:10.008Z,86.24
2022-11-15T05:17:50.193Z,86.26
2022-11-15T05:20:30.648Z,86.22
2022-11-15T05:23:11.060Z,86.05
2022-11-15T05:25:51.747Z,85.88
2022-11-15T05:28:33.364Z,86.23
2022-11-15T05:31:17.368Z,85.71
2022-11-15T05:34:01.017Z,85.93
2022-11-15T05:36:46.803Z,86.17
2022-11-15T05:39:27.185Z,85.92
2022-11-15T05:42:15.231Z,85.99
2022-11-15T05:44:55.757Z,86.05
2022-11-15T05:47:40.235Z,85.85
2022-11-15T05:50:20.871Z,86.03
2022-11-15T05:53:05.303Z,85.90
2022-11-15T05:55:46.426Z,86.01
2022-11-15T05:58:27.299Z,86.03
2022-11-15T06:01:07.706Z,86.26
2022-11-15T06:03:48.094Z,86.20
2022-11-15T06:06:31.447Z,85.95
2022-11-15T06:09:11.495Z,86.11
2022-11-15T06:11:52.056Z,86.17
2022-11-15T06:14:32.511Z,86.03
2022-11-15T06:17:12.747Z,86.18
2022-11-15T06:19:53.083Z,86.20
2022-11-15T06:22:33.763Z,86.19
2022-11-15T06:25:14.568Z,85.98
2022-11-15T06:27:59.764Z,85.97
2022-11-15T06:30:40.479Z,86.22
2022-11-15T06:33:21.061Z,86.21
2022-11-15T06:36:09.227Z,86.01
2022-11-15T06:38:52.707Z,85.96
2022-11-15T06:41:36.861Z,86.20
2022-11-15T06:44:17.537Z,86.35
2022-11-15T06:46:57.620Z,86.80
2022-11-15T06:49:38.185Z,87.16
2022-11-15T06:52:22.701Z,87.28
2022-11-15T06:55:02.818Z,87.17
2022-11-15T06:57:52.033Z,87.51
2022-11-15T07:00:32.510Z,87.35
2022-11-15T07:03:13.279Z,87.50
2022-11-15T07:05:56.207Z,88.12
2022-11-15T07:08:37.295Z,88.52
2022-11-15T07:11:17.791Z,88.64
2022-11-15T07:13:58.320Z,88.76
2022-11-15T07:16:39.005Z,88.92
2022-11-15T07:19:19.587Z,88.97
2022-11-15T07:21:59.989Z,89.17
2022-11-15T07:24:40.532Z,88.71
2022-11-15T07:27:20.999Z,88.83
2022-11-15T07:30:01.986Z,88.87
2022-11-15T07:32:42.465Z,89.00
2022-11-15T07:35:23.995Z,88.90
2022-11-15T07:38:04.773Z,88.63
2022-11-15T07:40:45.075Z,88.76
2022-11-15T07:43:25.950Z,89.19
2022-11-15T07:46:10.471Z,88.94
2022-11-15T07:48:51.116Z,88.96
2022-11-15T07:51:31.728Z,88.84
2022-11-15T07:54:12.390Z,88.62
2022-11-15T07:56:53.458Z,88.71
2022-11-15T07:59:34.505Z,88.50
2022-11-15T08:02:17.449Z,88.78
2022-11-15T08:04:58.330Z,88.53
2022-11-15T08:07:39.261Z,88.68
2022-11-15T08:10:21.095Z,88.80
2022-11-15T08:13:07.462Z,88.62
2022-11-15T08:15:50.130Z,88.92
2022-11-15T08:18:33.965Z,88.75
2022-11-15T08:21:20.543Z,88.88
2022-11-15T08:24:01.258Z,89.15
2022-11-15T08:26:41.971Z,88.87
2022-11-15T08:29:22.541Z,88.80
2022-11-15T08:32:03.016Z,88.80
2022-11-15T08:34:43.402Z,89.02
2022-11-15T08:37:23.775Z,89.13
2022-11-15T08:40:06.191Z,88.82
2022-11-15T08:42:50.279Z,88.72
2022-11-15T08:45:32.239Z,89.01
2022-11-15T08:48:13.019Z,88.93
2022-11-15T08:50:57.589Z,88.94
2022-11-15T08:53:38.080Z,88.92
2022-11-15T08:56:18.562Z,88.63
2022-11-15T08:58:58.758Z,88.45
2022-11-15T09:01:39.542Z,88.29
2022-11-15T09:04:19.843Z,88.33
2022-11-15T09:07:00.448Z,88.01
2022-11-15T09:09:41.068Z,87.94
2022-11-15T09:12:21.756Z,87.94
2022-11-15T09:15:02.156Z,87.92
2022-11-15T09:17:43.543Z,87.80
2022-11-15T09:20:24.011Z,87.54
2022-11-15T09:23:06.139Z,87.40
2022-11-15T09:25:46.452Z,87.27
2022-11-15T09:28:27.161Z,86.98
2022-11-15T09:31:07.541Z,86.57
2022-11-15T09:33:47.930Z,86.37
2022-11-15T09:36:28.606Z,86.18
2022-11-15T09:39:09.128Z,86.11
2022-11-15T09:41:58.167Z,86.01
2022-11-15T09:45:19.006Z,85.60
2022-11-15T09:48:37.638Z,85.43
2022-11-15T09:51:35.243Z,84.53
2022-11-15T09:57:16.243Z,83.13
2022-11-15T10:00:44.234Z,82.62
2022-11-15T10:03:17.532Z,81.81
2022-11-15T10:05:48.171Z,81.37
2022-11-15T10:08:53.567Z,80.96
2022-11-15T10:11:41.978Z,80.67
2022-11-15T10:14:16.778Z,79.98
2022-11-15T10:16:53.741Z,79.76
2022-11-15T10:19:38.989Z,79.39
2022-11-15T10:22:18.177Z,77.44
2022-11-15T10:24:45.380Z,76.35
2022-11-15T10:27:19.736Z,76.60
2022-11-15T10:29:47.363Z,75.79
2022-11-15T10:32:13.154Z,74.98
2022-11-15T10:34:37.431Z,74.14
2022-11-15T10:37:02.996Z,73.51
2022-11-15T10:39:26.071Z,73.54
2022-11-15T10:41:48.164Z,73.39
2022-11-15T10:44:32.874Z,72.36
2022-11-15T10:46:57.935Z,71.18
2022-11-15T10:49:32.179Z,71.02
2022-11-15T10:51:58.342Z,71.39
2022-11-15T10:54:43.643Z,70.64
2022-11-15T10:57:24.976Z,70.39
2022-11-15T10:59:52.153Z,70.01
2022-11-15T11:02:45.609Z,69.46
2022-11-15T11:05:42.095Z,69.47
2022-11-15T11:08:17.076Z,70.37
2022-11-15T11:11:01.447Z,69.56
2022-11-15T11:13:28.271Z,69.82
2022-11-15T11:16:07.171Z,69.87
2022-11-15T11:18:46.676Z,70.61
2022-11-15T11:21:18.496Z,69.56
2022-11-15T11:24:31.775Z,69.10
2022-11-15T11:27:21.431Z,69.37
2022-11-15T11:29:49.266Z,69.90
2022-11-15T11:33:10.187Z,69.54
2022-11-15T11:36:17.256Z,67.82
2022-11-15T11:39:25.262Z,68.14
2022-11-15T11:42:16.117Z,68.80
2022-11-15T11:45:17.182Z,68.68
2022-11-15T11:47:52.283Z,68.18
2022-11-15T11:50:28.951Z,67.73
2022-11-15T11:53:05.796Z,66.63
2022-11-15T11:55:39.661Z,66.43
2022-11-15T11:58:33.101Z,66.31
2022-11-15T12:01:31.941Z,66.41
2022-11-15T12:04:15.580Z,66.59
2022-11-15T12:07:32.181Z,66.31
2022-11-15T12:10:06.704Z,66.20
2022-11-15T12:12:52.581Z,66.47
2022-11-15T12:15:21.990Z,66.10
2022-11-15T12:17:46.946Z,66.27
2022-11-15T12:20:26.096Z,65.71
2022-11-15T12:22:58.204Z,65.47
2022-11-15T12:25:29.921Z,66.27
2022-11-15T12:28:01.403Z,66.35
2022-11-15T12:30:27.092Z,65.74
2022-11-15T12:33:01.642Z,65.92
2022-11-15T12:35:44.072Z,65.18
2022-11-15T12:38:31.845Z,65.23
2022-11-15T12:41:16.007Z,64.70
2022-11-15T12:43:44.082Z,63.87
2022-11-15T12:46:12.432Z,64.07
2022-11-15T12:48:37.275Z,64.10
2022-11-15T12:51:01.034Z,63.29
2022-11-15T12:53:26.093Z,63.35
2022-11-15T12:56:13.478Z,63.36
2022-11-15T12:59:01.966Z,63.60
2022-11-15T13:01:33.581Z,63.27
2022-11-15T13:04:27.984Z,63.48
2022-11-15T13:07:04.364Z,63.46
2022-11-15T13:09:29.355Z,63.58
2022-11-15T13:11:52.658Z,63.45
2022-11-15T13:14:45.761Z,63.30
2022-11-15T13:17:19.918Z,63.35
2022-11-15T13:19:42.309Z,63.36
2022-11-15T13:22:29.155Z,63.42
2022-11-15T13:24:51.129Z,63.43
2022-11-15T13:27:21.046Z,63.55
2022-11-15T13:29:44.690Z,63.24
2022-11-15T13:32:16.458Z,63.25
2022-11-15T13:34:54.032Z,63.61
2022-11-15T13:37:21.985Z,63.54
2022-11-15T13:39:43.980Z,63.43
2022-11-15T13:42:06.023Z,62.93
2022-11-15T13:44:34.477Z,63.21
2022-11-15T13:47:14.542Z,63.39
2022-11-15T13:49:36.603Z,63.37
2022-11-15T13:52:00.925Z,63.44
2022-11-15T13:54:33.843Z,63.34
2022-11-15T13:57:26.649Z,63.29
2022-11-15T13:59:55.752Z,63.36
2022-11-15T14:02:32.482Z,63.03
2022-11-15T14:05:20.787Z,62.64
2022-11-15T14:08:13.270Z,63.24
2022-11-15T14:10:38.517Z,63.26
2022-11-15T14:13:01.586Z,63.09
2022-11-15T14:15:35.989Z,62.53
2022-11-15T14:17:58.474Z,62.53
2022-11-15T14:20:36.458Z,62.33
2022-11-15T14:23:25.804Z,62.87
2022-11-15T14:25:59.730Z,62.87
2022-11-15T14:28:24.598Z,63.08
2022-11-15T14:30:51.012Z,63.11
2022-11-15T14:33:30.797Z,62.77
2022-11-15T14:35:53.906Z,62.36
2022-11-15T14:38:16.303Z,62.42
2022-11-15T14:40:38.853Z,62.60
2022-11-15T14:43:01.338Z,62.85
2022-11-15T14:45:23.845Z,62.49
2022-11-15T14:47:46.544Z,62.35
2022-11-15T14:50:16.866Z,62.66
2022-11-15T14:52:38.854Z,62.84
2022-11-15T14:55:03.321Z,62.17
2022-11-15T14:57:25.499Z,62.54
2022-11-15T14:59:47.868Z,62.46
2022-11-15T15:02:22.679Z,62.52
2022-11-15T15:04:44.598Z,62.41
2022-11-15T15:07:06.701Z,62.44
2022-11-15T15:09:28.861Z,62.71
2022-11-15T15:11:50.699Z,62.79
2022-11-15T15:14:15.328Z,62.38
2022-11-15T15:16:37.382Z,62.63
2022-11-15T15:18:59.299Z,62.50
2022-11-15T15:21:36.769Z,62.70
2022-11-15T15:23:59.479Z,62.75
2022-11-15T15:26:23.618Z,62.85
2022-11-15T15:28:52.309Z,62.35
2022-11-15T15:31:14.372Z,62.68
2022-11-15T15:33:37.259Z,62.95
2022-11-15T15:36:00.224Z,63.18
2022-11-15T15:38:22.655Z,63.04
2022-11-15T15:40:44.902Z,63.38
2022-11-15T15:43:09.912Z,63.52
2022-11-15T15:45:33.302Z,63.80
2022-11-15T15:47:55.472Z,63.73
2022-11-15T15:50:26.336Z,63.74
2022-11-15T15:52:48.790Z,63.97
2022-11-15T15:55:11.669Z,64.27
2022-11-15T15:57:33.697Z,64.51
2022-11-15T15:59:55.561Z,64.82
2022-11-15T16:02:17.430Z,65.04
2022-11-15T16:04:39.753Z,65.11
2022-11-15T16:07:03.459Z,65.06
2022-11-15T16:09:45.461Z,65.20
2022-11-15T16:12:07.465Z,65.82
2022-11-15T16:14:29.375Z,66.02
2022-11-15T16:16:51.289Z,66.14
2022-11-15T16:19:13.354Z,66.32
2022-11-15T16:21:36.772Z,66.29
2022-11-15T16:23:58.654Z,66.64
2022-11-15T16:26:29.184Z,66.58
2022-11-15T16:28:51.172Z,66.92
2022-11-15T16:31:14.097Z,67.22
2022-11-15T16:33:37.207Z,67.19
2022-11-15T16:35:59.483Z,67.36
2022-11-15T16:38:21.585Z,67.54
2022-11-15T16:40:43.862Z,67.96
2022-11-15T16:43:06.564Z,68.07
2022-11-15T16:45:29.424Z,68.06
2022-11-15T16:47:51.609Z,67.80
2022-11-15T16:50:26.454Z,68.23
2022-11-15T16:52:48.511Z,68.29
2022-11-15T16:55:10.668Z,68.48
2022-11-15T16:57:32.570Z,68.74
2022-11-15T16:59:54.490Z,69.04
2022-11-15T17:02:17.302Z,69.37
2022-11-15T17:04:39.550Z,69.81
2022-11-15T17:07:01.631Z,70.07
2022-11-15T17:09:24.822Z,70.39
2022-11-15T17:11:47.230Z,70.42
2022-11-15T17:14:10.008Z,70.86
2022-11-15T17:16:31.978Z,70.76
2022-11-15T17:18:54.019Z,71.62
2022-11-15T17:21:22.490Z,71.59
2022-11-15T17:23:44.852Z,71.68
2022-11-15T17:26:27.907Z,71.73
2022-11-15T17:28:49.563Z,72.36
2022-11-15T17:31:14.806Z,72.15
2022-11-15T17:33:38.129Z,72.20
2022-11-15T17:36:05.068Z,72.90
2022-11-15T17:38:28.520Z,72.79
2022-11-15T17:41:05.886Z,73.10
2022-11-15T17:43:28.357Z,73.41
2022-11-15T17:45:50.397Z,73.97
2022-11-15T17:48:12.303Z,73.87
2022-11-15T17:50:34.412Z,74.51
2022-11-15T17:52:57.460Z,74.56
2022-11-15T17:55:19.494Z,74.99
2022-11-15T17:57:43.616Z,75.30
2022-11-15T18:00:06.556Z,75.28
2022-11-15T18:02:28.413Z,75.59
2022-11-15T18:04:50.510Z,76.07
2022-11-15T18:07:14.281Z,76.07
2022-11-15T18:09:36.485Z,76.62
2022-11-15T18:11:58.775Z,76.86
2022-11-15T18:14:20.989Z,77.22
2022-11-15T18:16:43.049Z,77.31
2022-11-15T18:19:09.077Z,77.47
2022-11-15T18:21:34.002Z,77.57
2022-11-15T18:23:59.977Z,77.89
2022-11-15T18:26:27.104Z,77.83
2022-11-15T18:28:49.913Z,78.25
2022-11-15T18:31:29.244Z,79.01
2022-11-15T18:33:52.486Z,79.04
2022-11-15T18:36:19.355Z,79.27
2022-11-15T18:38:41.872Z,79.73
2022-11-15T18:41:12.366Z,79.64
2022-11-15T18:43:35.601Z,79.90
2022-11-15T18:46:13.320Z,80.04
2022-11-15T18:48:37.835Z,80.43
2022-11-15T18:51:07.754Z,80.65
2022-11-15T18:53:30.061Z,80.91
2022-11-15T18:55:52.014Z,81.08
2022-11-15T18:58:13.913Z,81.57
2022-11-15T19:00:35.879Z,81.84
2022-11-15T19:02:57.840Z,81.45
2022-11-15T19:05:21.422Z,81.53
2022-11-15T19:07:43.331Z,81.79
2022-11-15T19:10:06.200Z,82.01
2022-11-15T19:12:28.068Z,82.22
2022-11-15T19:14:50.321Z,82.33
2022-11-15T19:17:12.254Z,82.25
2022-11-15T19:19:34.408Z,82.35
2022-11-15T19:21:57.535Z,82.60
2022-11-15T19:24:20.491Z,82.61
2022-11-15T19:26:43.750Z,82.38
2022-11-15T19:29:10.373Z,82.94
2022-11-15T19:31:33.308Z,83.03
2022-11-15T19:33:58.221Z,83.23
2022-11-15T19:36:32.373Z,83.19
2022-11-15T19:38:56.042Z,83.39
2022-11-15T19:41:22.774Z,83.40
2022-11-15T19:43:47.999Z,83.47
2022-11-15T19:46:12.345Z,83.49
2022-11-15T19:48:35.116Z,83.28
2022-11-15T19:51:05.529Z,83.44
2022-11-15T19:53:33.341Z,83.79
2022-11-15T19:56:01.909Z,83.63
2022-11-15T19:58:24.731Z,83.56
2022-11-15T20:00:46.664Z,83.77
2022-11-15T20:03:08.554Z,83.76
2022-11-15T20:05:30.480Z,83.90
2022-11-15T20:07:52.381Z,84.13
2022-11-15T20:10:18.132Z,84.06
2022-11-15T20:12:42.988Z,84.10
2022-11-15T20:15:06.378Z,84.13
2022-11-15T20:17:28.253Z,84.10
2022-11-15T20:19:50.267Z,84.49
2022-11-15T20:22:12.284Z,84.44
2022-11-15T20:24:35.377Z,84.08
2022-11-15T20:26:57.945Z,84.31
2022-11-15T20:29:20.010Z,84.37
2022-11-15T20:31:42.489Z,84.74
2022-11-15T20:34:05.400Z,84.31
2022-11-15T20:36:31.455Z,84.42
2022-11-15T20:39:00.659Z,84.61
2022-11-15T20:41:23.046Z,85.23
2022-11-15T20:43:45.732Z,85.03
2022-11-15T20:46:07.729Z,85.24
2022-11-15T20:48:30.709Z,85.10
2022-11-15T20:51:09.773Z,84.98
2022-11-15T20:53:32.409Z,85.36
2022-11-15T20:55:55.099Z,84.70
2022-11-15T20:58:18.234Z,85.25
2022-11-15T21:00:42.145Z,85.20
2022-11-15T21:03:07.696Z,85.52
2022-11-15T21:05:29.881Z,85.77
2022-11-15T21:07:51.721Z,85.17
2022-11-15T21:10:31.974Z,85.69
2022-11-15T21:12:53.964Z,85.58
2022-11-15T21:15:16.057Z,85.75
2022-11-15T21:17:37.991Z,85.77
2022-11-15T21:20:00.061Z,85.74
2022-11-15T21:22:22.055Z,85.47
2022-11-15T21:24:43.971Z,85.59
2022-11-15T21:27:06.465Z,85.68
2022-11-15T21:29:36.360Z,85.60
2022-11-15T21:32:00.680Z,85.34
2022-11-15T21:34:24.794Z,85.70
2022-11-15T21:36:47.050Z,85.93
2022-11-15T21:39:09.938Z,85.76
2022-11-15T21:41:32.496Z,85.68
2022-11-15T21:43:59.539Z,85.92
2022-11-15T21:46:21.520Z,85.74
2022-11-15T21:48:43.676Z,85.90
2022-11-15T21:51:11.072Z,85.89
2022-11-15T21:53:34.219Z,85.67
2022-11-15T21:55:56.524Z,85.81
2022-11-15T21:58:19.927Z,85.95
2022-11-15T22:01:20.162Z,86.00
2022-11-15T22:03:43.647Z,86.36
2022-11-15T22:06:05.952Z,86.10
2022-11-15T22:08:28.076Z,85.88
2022-11-15T22:10:51.127Z,86.35
2022-11-15T22:13:13.761Z,86.40
2022-11-15T22:15:36.067Z,86.47
2022-11-15T22:17:57.872Z,86.36
2022-11-15T22:20:43.679Z,86.31
2022-11-15T22:23:02.843Z,86.70
2022-11-15T22:25:26.230Z,86.49
2022-11-15T22:27:48.162Z,86.59
2022-11-15T22:30:11.152Z,86.50
2022-11-15T22:32:33.155Z,86.46
2022-11-15T22:34:55.133Z,86.30
2022-11-15T22:37:21.162Z,86.45
2022-11-15T22:39:43.250Z,86.79
2022-11-15T22:42:05.122Z,86.66
2022-11-15T22:44:26.904Z,86.95
2022-11-15T22:46:48.731Z,86.40
2022-11-15T22:49:10.617Z,86.98
2022-11-15T22:51:32.473Z,86.82
2022-11-15T22:53:54.310Z,86.84
2022-11-15T22:56:20.114Z,86.89
2022-11-15T22:58:42.245Z,86.82
2022-11-15T23:01:05.964Z,86.87
2022-11-15T23:03:29.608Z,87.10
2022-11-15T23:05:51.738Z,87.04
2022-11-15T23:08:14.390Z,87.07
2022-11-15T23:10:58.580Z,86.89
2022-11-15T23:13:20.497Z,87.08
2022-11-15T23:16:08.600Z,87.06
2022-11-15T23:18:37.712Z,86.80
2022-11-15T23:20:59.676Z,87.37
2022-11-15T23:23:21.786Z,87.50
2022-11-15T23:25:43.698Z,87.36
2022-11-15T23:28:06.152Z,87.65
2022-11-15T23:30:46.519Z,87.48
2022-11-15T23:33:34.122Z,87.65
2022-11-15T23:35:56.273Z,87.45
2022-11-15T23:38:21.419Z,87.78
2022-11-15T23:40:43.522Z,88.06
2022-11-15T23:43:05.536Z,88.09
2022-11-15T23:45:27.593Z,88.05
2022-11-15T23:47:49.625Z,87.92
2022-11-15T23:50:11.865Z,87.92
2022-11-15T23:52:33.784Z,88.06
2022-11-15T23:54:55.643Z,88.25
2022-11-15T23:57:17.604Z,88.10
2022-11-15T23:59:43.615Z,88.24
